Rozet, Wyoming
Current Conditions -  °F | °C
As of 8:53 PM on Wednesday 26 Nov 2014 (Local Time) from KGCC Reporting Station
Few Clouds Few Clouds  
Wind Chill: 19°   Ceiling: Unl
Heat Index: 25°   Visibility: 10mi
Dew Point: 21°   Wind: 5mph
Humidity: 85%   Direction: 140°SE
Pressure: 30.16"   Gusts: NA
Location:  44.28°N, 105.21°W
Report Text: KGCC 270353Z AUTO 14004KT 10SM FEW035 M04/M06 A3016 RMK AO2 SLP250 T10391061 TSNO
Loading
Personal Weather Stations






























Interactive Weather Map New forecast layout! Learn more

10-Day Weather Forecast

Advertisements
Track Severe Weather on mobile